Terminal Aerodrome Forecast
Issued by NWS

Home | Current Version | Previous Version | Text Only | Print | Product List | Glossary On
Versions: 1 2 3 4 5 6 7 8 9 10 11 12
000
FTUS42 TJSJ 282300 RRA
TAFJBQ
TAF
TJBQ 282345Z 2900/2924 11006KT P6SM FEW030
     FM291200 09012KT P6SM SCT025
     FM291800 07015KT P6SM VCTS SCT025CB BKN040
     FM292300 11005KT P6SM SCT025
      AMD NOT SKED 2902/2911=

USA.gov is the U.S. government's official web portal to all federal, state and local government web resources and services.